Flight Track Log - Related Links

Times and Time Zones

All times are in EDT time to prevent confusion due to time zone crossing. See the SKQ45 flight status page for this flight to view local times or setup timezone preferences in your user account.

Time Position Orientation Groundspeed Altitude Reporting Facility
EDT Latitude Longitude Course Direction KTS MPH feet Rate Location/Type
Thu 08:33:20 PM 36.0703 -79.6717 276° West 103 119 10,500  Level Atlanta Center
Thu 08:34:20 PM 36.0758 -79.7100 280° West 108 124 11,800 850 Climbing Atlanta Center
Thu 08:35:00 PM 36.1000 -79.8465 270° West  Level FlightAware Approximate
Thu 08:35:20 PM 36.0839 -79.7633 281° West 139 160 12,200  Level Atlanta Center
Thu 08:36:00 PM 36.1121 -79.9228 282° West  Level FlightAware Approximate
Thu 08:36:20 PM 36.0900 -79.8197 278° West 159 183 13,900  Level Atlanta Center
Thu 08:37:00 PM 36.1208 -79.9998 276° West  Level FlightAware Approximate
Thu 08:37:20 PM 36.0981 -79.8706 281° West 166 191 15,100  Level Atlanta Center
Thu 08:38:00 PM 36.1273 -80.0772 276° West  Level FlightAware Approximate
Thu 08:38:20 PM 36.1039 -79.9217 278° West 166 191 16,100  Level Atlanta Center
Thu 08:39:20 PM 36.1142 -79.9778 283° West 161 185 17,000 950 Climbing Atlanta Center
Thu 08:40:20 PM 36.1222 -80.0339 280° West 161 185 18,000 1,000 Climbing Atlanta Center
Thu 08:41:20 PM 36.1306 -80.0953 280° West 166 191 19,000 500 Climbing Atlanta Center
Thu 08:42:20 PM 36.1389 -80.1617 279° West 174 200 19,000  Level Atlanta Center
Thu 08:43:20 PM 36.1517 -80.2331 283° West 197 227 19,000  Level Atlanta Center
Thu 08:44:20 PM 36.1597 -80.2994 279° West 219 252 19,000 400 Level Atlanta Center
Thu 08:45:20 PM 36.1703 -80.3683 281° West 219 252 19,800 500 Climbing Atlanta Center
Thu 08:46:20 PM 36.1786 -80.4425 278° West 207 238 20,000 100 Climbing Atlanta Center
Thu 08:47:20 PM 36.1889 -80.5039 282° West 207 238 20,000  Level Atlanta Center
Thu 08:48:20 PM 36.1969 -80.5706 279° West 207 238 20,000  Level Atlanta Center
Thu 08:49:20 PM 36.2117 -80.6522 283° West 222 255 20,000  Level Atlanta Center
Thu 08:50:20 PM 36.2219 -80.7239 280° West 217 250 20,000  Level Atlanta Center
Thu 08:51:20 PM 36.2325 -80.8006 280° West 217 250 20,000  Level Atlanta Center
Thu 08:52:20 PM 36.2428 -80.8722 280° West 217 250 20,000  Level Atlanta Center
Thu 08:53:20 PM 36.2531 -80.9492 279° West 222 255 20,000  Level Atlanta Center
Thu 08:54:20 PM 36.2633 -81.0261 279° West 222 255 20,000  Level Atlanta Center
Thu 08:55:20 PM 36.2756 -81.1028 281° West 222 255 20,000  Level Atlanta Center
Thu 08:56:20 PM 36.2858 -81.1847 279° West 227 261 20,000  Level Atlanta Center
Thu 08:57:20 PM 36.2981 -81.2642 281° West 227 261 20,000  Level Atlanta Center
Thu 08:58:20 PM 36.3081 -81.3411 279° West 233 268 20,000  Level Atlanta Center
Thu 08:59:20 PM 36.3161 -81.4183 277° West 233 268 20,000  Level Atlanta Center
Thu 09:00:20 PM 36.3258 -81.4925 279° West 233 268 20,000  Level Atlanta Center
Thu 09:01:20 PM 36.3381 -81.5694 281° West 233 268 20,000  Level Atlanta Center
Thu 09:02:20 PM 36.3478 -81.6467 279° West 233 268 20,000  Level Atlanta Center
Thu 09:03:20 PM 36.3575 -81.7236 279° West 233 268 20,000  Level Atlanta Center
Thu 09:04:20 PM 36.3672 -81.7956 280° West 226 260 20,000  Level Atlanta Center
Thu 09:05:20 PM 36.3769 -81.8700 279° West 221 254 20,000  Level Atlanta Center
Thu 09:06:20 PM 36.3844 -81.9422 277° West 221 254 20,000  Level Atlanta Center
Thu 09:07:20 PM 36.3919 -82.0167 277° West 221 254 20,000  Level Atlanta Center
Thu 09:08:20 PM 36.4036 -82.0886 281° West 216 249 20,000  Level Atlanta Center
Thu 09:09:20 PM 36.4233 -82.1578 290° West 216 249 20,000  Level Atlanta Center
Thu 09:10:20 PM 36.4431 -82.2167 293° West 216 249 20,000  Level Atlanta Center
Thu 09:11:20 PM 36.4650 -82.2833 292° West 211 243 20,000  Level Atlanta Center
Thu 09:12:20 PM 36.4867 -82.3525 291° West 211 243 20,000  Level Atlanta Center
Thu 09:13:20 PM 36.5064 -82.4167 291° West 211 243 20,000  Level Atlanta Center
Thu 09:14:20 PM 36.5281 -82.4833 292° West 206 237 20,000  Level Atlanta Center
Thu 09:15:20 PM 36.5478 -82.5478 291° West 206 237 20,000  Level Atlanta Center
Thu 09:16:20 PM 36.5692 -82.6144 292° West 206 237 20,000  Level Atlanta Center
Thu 09:17:53 PM 36.6042 -82.7214 292° West 201 231 20,000  Level Indianapolis Center
Thu 09:18:55 PM 36.6264 -82.7889 292° West 206 237 20,000  Level Indianapolis Center
Thu 09:19:56 PM 36.6467 -82.8561 291° West 207 238 20,000  Level Indianapolis Center
Thu 09:20:58 PM 36.6692 -82.9253 292° West 212 244 20,000  Level Indianapolis Center
Thu 09:22:00 PM 36.6911 -82.9950 291° West 214 246 20,000  Level Indianapolis Center
Thu 09:23:02 PM 36.7128 -83.0639 291° West 212 244 20,000  Level Indianapolis Center
Thu 09:24:03 PM 36.7342 -83.1339 291° West 214 246 20,000  Level Indianapolis Center
Thu 09:25:05 PM 36.7553 -83.2033 291° West 213 245 20,000  Level Indianapolis Center
Thu 09:26:07 PM 36.7761 -83.2692 292° West 207 238 20,000  Level Indianapolis Center
Thu 09:27:09 PM 36.8006 -83.3481 291° West 207 238 20,000  Level Indianapolis Center
Thu 09:28:10 PM 36.8208 -83.4139 291° West 204 235 20,000  Level Indianapolis Center
Thu 09:29:12 PM 36.8408 -83.4797 291° West 202 232 20,000  Level Indianapolis Center
Thu 09:30:14 PM 36.8619 -83.5464 292° West 205 236 20,000  Level Indianapolis Center
Thu 09:31:16 PM 36.8819 -83.6136 290° West 206 237 20,000  Level Indianapolis Center
Thu 09:32:17 PM 36.9022 -83.6803 291° West 206 237 20,000  Level Indianapolis Center
Thu 09:33:19 PM 36.9233 -83.7461 292° West 205 236 20,000  Level Indianapolis Center
Thu 09:34:21 PM 36.9464 -83.8228 291° West 203 234 20,000  Level Indianapolis Center
Thu 09:35:23 PM 36.9664 -83.8889 291° West 202 232 20,000  Level Indianapolis Center
Thu 09:36:24 PM 36.9867 -83.9553 291° West 203 234 20,000  Level Indianapolis Center
Thu 09:37:26 PM 37.0058 -84.0222 290° West 205 236 20,000  Level Indianapolis Center
Thu 09:38:28 PM 37.0256 -84.0889 290° West 205 236 20,000  Level Indianapolis Center
Thu 09:39:30 PM 37.0342 -84.1600 279° West 214 246 20,000  Level Indianapolis Center
Thu 09:40:31 PM 37.0367 -84.2481 272° West 215 247 20,000  Level Indianapolis Center
Thu 09:41:33 PM 37.0378 -84.3239 271° West 217 250 20,000  Level Indianapolis Center
Thu 09:42:35 PM 37.0381 -84.3992 270° West 217 250 20,000  Level Indianapolis Center
Thu 09:43:37 PM 37.0406 -84.4744 272° West 218 251 20,000  Level Indianapolis Center
Thu 09:44:38 PM 37.0419 -84.5506 271° West 218 251 20,000  Level Indianapolis Center
Thu 09:45:40 PM 37.0442 -84.6264 272° West 218 251 20,000  Level Indianapolis Center
Thu 09:46:42 PM 37.0458 -84.7019 272° West 217 250 20,000  Level Indianapolis Center
Thu 09:47:43 PM 37.0469 -84.7908 271° West 218 251 20,000  Level Indianapolis Center
Thu 09:48:45 PM 37.0481 -84.8669 271° West 219 252 20,000  Level Indianapolis Center
Thu 09:49:47 PM 37.0503 -84.9444 272° West 223 257 20,000  Level Indianapolis Center
Thu 09:50:49 PM 37.0514 -85.0225 271° West 224 258 20,000  Level Indianapolis Center
Thu 09:51:50 PM 37.0525 -85.1006 271° West 225 259 20,000  Level Indianapolis Center
Thu 09:52:52 PM 37.0553 -85.1786 273° West 224 258 20,000  Level Indianapolis Center
Thu 09:53:54 PM 37.0561 -85.2692 271° West 223 257 20,000  Level Indianapolis Center
Thu 09:54:55 PM 37.0586 -85.3492 272° West 227 261 20,000  Level Indianapolis Center
Thu 09:55:57 PM 37.0594 -85.4283 271° West 229 264 20,000  Level Indianapolis Center
Thu 09:56:58 PM 37.0589 -85.5103 270° West 232 267 20,000  Level Indianapolis Center
Thu 09:58:00 PM 37.0606 -85.5911 272° West 232 267 20,000  Level Indianapolis Center
Thu 09:59:01 PM 37.0611 -85.6725 271° West 232 267 20,000  Level Indianapolis Center
Thu 10:00:03 PM 37.0636 -85.7539 272° West 232 267 20,000  Level Indianapolis Center
Thu 10:01:04 PM 37.0633 -85.8331 270° West 228 262 20,000  Level Indianapolis Center
Thu 10:02:06 PM 37.0647 -85.9139 271° West 229 264 20,000  Level Indianapolis Center
Thu 10:03:07 PM 37.0650 -85.9947 270° West 230 265 20,000  Level Indianapolis Center
Thu 10:04:09 PM 37.0658 -86.0758 271° West 230 265 20,000  Level Indianapolis Center
Thu 10:05:10 PM 37.0672 -86.1700 271° West 231 266 20,000  Level Indianapolis Center
Thu 10:06:11 PM 37.0675 -86.2547 270° West 237 273 20,000  Level Indianapolis Center
Thu 10:07:13 PM 37.0683 -86.3344 271° West 231 266 20,000 -195 Level Indianapolis Center
Thu 10:08:14 PM 37.0689 -86.4169 271° West 234 269 19,600 -532 Descending Indianapolis Center
Thu 10:08:32 PM 37.0683 -86.4494 269° West 233 268 19,300 -846 Descending Memphis Center
Thu 10:09:32 PM 37.0689 -86.5378 270° West 253 291 18,500 -800 Descending Memphis Center
Thu 10:10:32 PM 37.0697 -86.6314 271° West 258 297 17,700 -759 Descending Memphis Center
Thu 10:10:51 PM 37.0706 -86.6572 272° West 264 304 17,500 -600 Descending Memphis Center
Thu 10:11:32 PM 37.0700 -86.7144 269° West 263 303 17,100 -689 Descending Memphis Center
Thu 10:11:52 PM 37.0689 -86.7511 268° West 264 304 16,800 -800 Descending Memphis Center
Thu 10:12:32 PM 37.0706 -86.8028 272° West 263 303 16,300 -800 Descending Memphis Center
Thu 10:12:52 PM 37.0694 -86.8394 268° West 263 303 16,000 -700 Descending Memphis Center
Thu 10:13:32 PM 37.0711 -86.8939 272° West 268 308 15,600 -787 Descending Memphis Center
Thu 10:13:53 PM 37.0700 -86.9356 268° West 264 304 15,200 -800 Descending Memphis Center
Thu 10:14:32 PM 37.0694 -86.9850 269° West 268 308 14,800 -787 Descending Memphis Center
Thu 10:14:54 PM 37.0706 -87.0317 272° West 268 308 14,400 -800 Descending Memphis Center
Thu 10:15:32 PM 37.0719 -87.0811 272° West 274 315 14,000 -800 Descending Memphis Center
Thu 10:15:54 PM 37.0708 -87.1228 268° West 268 308 13,600 -800 Descending Memphis Center
Thu 10:16:32 PM 37.0722 -87.1719 272° West 269 310 13,200 -787 Descending Memphis Center
Thu 10:16:55 PM 37.0692 -87.2189 265° West 268 308 12,800 -800 Descending Memphis Center
Thu 10:17:32 PM 37.0725 -87.2656 275° West 274 315 12,400 -700 Descending Memphis Center
Thu 10:17:55 PM 37.0714 -87.3072 268° West 268 308 12,100 -800 Descending Memphis Center
Thu 10:18:32 PM 37.0706 -87.3592 269° West 274 315 11,600 -885 Descending Memphis Center
Thu 10:18:56 PM 37.0697 -87.4061 269° West 268 308 11,200 -800 Descending Memphis Center
Thu 10:19:32 PM 37.0708 -87.4503 272° West 266 306 10,800 -787 Descending Memphis Center
Thu 10:19:57 PM 37.0678 -87.5025 266° West 268 308 10,400 -800 Descending Memphis Center
Thu 10:20:32 PM 37.0711 -87.5594 274° West 266 306 10,000 -758 Descending Memphis Center
Thu 10:21:32 PM 37.0689 -87.6453 268° West 286 329 9,200 -800 Descending Memphis Center
Thu 10:22:32 PM 37.0708 -87.7389 272° West 281 323 8,400 -800 Descending Memphis Center
Thu 10:23:32 PM 37.0686 -87.8300 268° West 276 318 7,600 -800 Descending Memphis Center
Thu 10:24:32 PM 37.0706 -87.9261 271° West 274 315 6,800 -800 Descending Memphis Center
Thu 10:25:32 PM 37.0786 -88.0169 276° West 274 315 6,000 -800 Descending Memphis Center
Thu 10:26:32 PM 37.0883 -88.1022 278° West 263 303 5,200 -800 Descending Memphis Center
Thu 10:27:32 PM 37.1003 -88.1853 280° West 256 295 4,400 -600 Descending Memphis Center
Thu 10:28:32 PM 37.1100 -88.2631 279° West 237 273 4,000 -200 Descending Memphis Center
Thu 10:29:32 PM 37.1194 -88.3331 280° West 224 258 4,000  Level Memphis Center
Thu 10:30:32 PM 37.1292 -88.4133 279° West 218 251 4,000  Level Memphis Center
Thu 10:31:32 PM 37.1367 -88.4914 277° West 228 262 4,000 -250 Level Memphis Center
Thu 10:32:32 PM 37.1483 -88.5769 280° West 239 275 3,500 -250 Descending Memphis Center
Thu 10:33:32 PM 37.1597 -88.6572 280° West 239 275 3,500 -250 Level Memphis Center
Thu 10:34:32 PM 37.1417 -88.7044 244° Southwest 183 211 3,000 -900 Descending Memphis Center
Thu 10:35:32 PM 37.1106 -88.7233 206° Southwest 136 157 1,700 -1,050 Descending Memphis Center
Thu 10:36:32 PM 37.0819 -88.7525 219° Southwest 136 157 900 -400 Descending Memphis Center
Thu 10:37:32 PM 37.0614 -88.7867 233° Southwest 136 157 900  Level Memphis Center

Login

Don't have an account? Register now (free) for customized features, flight alerts, and more!